Viking Amber — 9V7985 — position and weather

sailwx.info

Track history (hours):
 
Tides and Currents Weather Stations Pressure Air Temp Water Temp Dewpoint Dewpoint Depression Visibility Wind Speed Wind Dir Waves Ship Positions

Viking Amber

Last reported at 2018-Feb-17 10:53 UTC. Time now 2018-Feb-25 03:54 UTC.
Position N 01°12' E 103°33'.

Length 167 m; draft 8.3 m.

Type: Cargo ship. MMSI: 563255000.

Date/timePositionNaut miles runAvg speedWind from/ knotsBaromVisibWave heightAir tempDewpointWater temp
2018-Feb-17 10:53N 01°12' E 103°33'713.5
2018-Feb-17 10:22N 01°13' E 103°40'3 9.4
2018-Feb-17 10:00N 01°14' E 103°43'4 7.2
2018-Feb-17 09:27N 01°17' E 103°45'0 0.0
2018-Feb-17 08:51N 01°17' E 103°45'0 0.0
2018-Feb-17 07:57N 01°17' E 103°45'0 0.0
2018-Feb-17 07:12N 01°17' E 103°45'0 0.0
2018-Feb-17 07:00N 01°17' E 103°45'0 0.0
2018-Feb-17 06:27N 01°17' E 103°45'0 0.0
2018-Feb-17 05:24N 01°17' E 103°45'0 0.0
2018-Feb-17 05:00N 01°17' E 103°45'0 0.0
2018-Feb-17 04:30N 01°17' E 103°45'0 0.0
2018-Feb-17 04:00N 01°17' E 103°45'0 0.0
2018-Feb-17 03:24N 01°17' E 103°45'0 0.0
2018-Feb-17 03:00N 01°17' E 103°45'0 0.0
2018-Feb-17 02:30N 01°17' E 103°45'0 0.6
2018-Feb-17 02:00N 01°17' E 103°45'4 7.7
2018-Feb-17 01:30N 01°14' E 103°47'611.4
2018-Feb-17 00:59N 01°13' E 103°53'3 6.8
2018-Feb-17 00:30N 01°14' E 103°56'  
2018-Feb-09 15:00N 35°10' E 139°46'611.6
2018-Feb-09 14:31N 35°15' E 139°46'612.8
2018-Feb-09 14:00N 35°21' E 139°42'510.5
2018-Feb-09 13:31N 35°26' E 139°42'1 0.1
2018-Feb-08 23:00N 35°27' E 139°41'3 5.3
2018-Feb-08 22:30N 35°25' E 139°44'4 8.2
2018-Feb-08 22:00N 35°21' E 139°43'612.9
2018-Feb-08 21:30N 35°15' E 139°47'1610.4
2018-Feb-08 20:00N 35°01' E 139°38'613.0
2018-Feb-08 19:30N 34°57' E 139°32'3216.0
2018-Feb-08 17:30N 34°35' E 139°05'11115.8
2018-Feb-08 10:30N 34°40' E 136°50'816.8
2018-Feb-08 10:00N 34°48' E 136°46'1414.0
2018-Feb-08 09:00N 35°01' E 136°51'2 0.2
2018-Feb-08 01:27N 35°03' E 136°51'0 0.4
2018-Feb-08 01:00N 35°03' E 136°51'4 7.2
2018-Feb-08 00:30N 34°59' E 136°49'713.2
2018-Feb-08 00:00N 34°53' E 136°46'815.4
2018-Feb-07 23:30N 34°46' E 136°48'815.8
2018-Feb-07 22:59N 34°39' E 136°54'  
Track history (hours):
 
Tides and Currents Weather Stations Pressure Air Temp Water Temp Dewpoint Dewpoint Depression Visibility Wind Speed Wind Dir Waves Ship Positions

Viking Amber

Last reported at 2018-Feb-17 10:53 UTC. Time now 2018-Feb-25 03:54 UTC.
Position N 01°12' E 103°33'.

Length 167 m; draft 8.3 m.

Type: Cargo ship. MMSI: 563255000.

Date/timePositionNaut miles runAvg speedWind from/ knotsBaromVisibWave heightAir tempDewpointWater temp
2018-Feb-17 10:53N 01°12' E 103°33'713.5
2018-Feb-17 10:22N 01°13' E 103°40'3 9.4
2018-Feb-17 10:00N 01°14' E 103°43'4 7.2
2018-Feb-17 09:27N 01°17' E 103°45'0 0.0
2018-Feb-17 08:51N 01°17' E 103°45'0 0.0
2018-Feb-17 07:57N 01°17' E 103°45'0 0.0
2018-Feb-17 07:12N 01°17' E 103°45'0 0.0
2018-Feb-17 07:00N 01°17' E 103°45'0 0.0
2018-Feb-17 06:27N 01°17' E 103°45'0 0.0
2018-Feb-17 05:24N 01°17' E 103°45'0 0.0
2018-Feb-17 05:00N 01°17' E 103°45'0 0.0
2018-Feb-17 04:30N 01°17' E 103°45'0 0.0
2018-Feb-17 04:00N 01°17' E 103°45'0 0.0
2018-Feb-17 03:24N 01°17' E 103°45'0 0.0
2018-Feb-17 03:00N 01°17' E 103°45'0 0.0
2018-Feb-17 02:30N 01°17' E 103°45'0 0.6
2018-Feb-17 02:00N 01°17' E 103°45'4 7.7
2018-Feb-17 01:30N 01°14' E 103°47'611.4
2018-Feb-17 00:59N 01°13' E 103°53'3 6.8
2018-Feb-17 00:30N 01°14' E 103°56'  
2018-Feb-09 15:00N 35°10' E 139°46'611.6
2018-Feb-09 14:31N 35°15' E 139°46'612.8
2018-Feb-09 14:00N 35°21' E 139°42'510.5
2018-Feb-09 13:31N 35°26' E 139°42'1 0.1
2018-Feb-08 23:00N 35°27' E 139°41'3 5.3
2018-Feb-08 22:30N 35°25' E 139°44'4 8.2
2018-Feb-08 22:00N 35°21' E 139°43'612.9
2018-Feb-08 21:30N 35°15' E 139°47'1610.4
2018-Feb-08 20:00N 35°01' E 139°38'613.0
2018-Feb-08 19:30N 34°57' E 139°32'3216.0
2018-Feb-08 17:30N 34°35' E 139°05'11115.8
2018-Feb-08 10:30N 34°40' E 136°50'816.8
2018-Feb-08 10:00N 34°48' E 136°46'1414.0
2018-Feb-08 09:00N 35°01' E 136°51'2 0.2
2018-Feb-08 01:27N 35°03' E 136°51'0 0.4
2018-Feb-08 01:00N 35°03' E 136°51'4 7.2
2018-Feb-08 00:30N 34°59' E 136°49'713.2
2018-Feb-08 00:00N 34°53' E 136°46'815.4
2018-Feb-07 23:30N 34°46' E 136°48'815.8
2018-Feb-07 22:59N 34°39' E 136°54'  

Dump ship's entire track history